Time;durP1;ratioP1;P1;durP2;ratioP2;P2;SDS_P1;SDS_P2;PMS_P1;PMS_P2;Temp;Humidity;BMP_temperature;BMP_pressure;BME280_temperature;BME280_humidity;BME280_pressure;Samples;Min_cycle;Max_cycle;Signal;HPM_P1;HPM_P2
2023/02/20 00:00:49;;;;;;;7.97;3.77;;;4.90;99.90;;;;;;5053016;28;20194;-49
2023/02/20 00:03:17;;;;;;;8.75;5.05;;;5.50;99.90;;;;;;5052820;28;20996;-52
2023/02/20 00:05:44;;;;;;;9.40;4.60;;;4.90;99.90;;;;;;5052902;28;20549;-52
2023/02/20 00:08:10;;;;;;;12.02;4.40;;;4.30;99.90;;;;;;5052630;28;20769;-49
2023/02/20 00:10:37;;;;;;;7.35;4.03;;;4.90;99.90;;;;;;5052896;28;20241;-49
2023/02/20 00:13:04;;;;;;;8.02;5.32;;;5.20;99.90;;;;;;5052319;28;20227;-54
2023/02/20 00:15:31;;;;;;;6.85;4.50;;;4.80;99.90;;;;;;5052099;28;20200;-49
2023/02/20 00:17:57;;;;;;;8.63;4.60;;;4.90;99.90;;;;;;5052803;28;20219;-49
2023/02/20 00:20:26;;;;;;;9.20;5.13;;;5.00;99.90;;;;;;5034242;28;20471;-51
2023/02/20 00:22:53;;;;;;;7.32;4.88;;;5.00;99.90;;;;;;5052520;28;20443;-49
2023/02/20 00:25:21;;;;;;;8.75;5.30;;;5.00;99.90;;;;;;5052617;28;20197;-49
2023/02/20 00:27:48;;;;;;;11.43;5.20;;;4.80;99.90;;;;;;5034467;28;20197;-48
2023/02/20 00:30:16;;;;;;;9.17;5.50;;;5.00;99.90;;;;;;5034363;28;20445;-50
2023/02/20 00:32:43;;;;;;;8.57;5.20;;;4.80;99.90;;;;;;5052733;28;20786;-48
2023/02/20 00:35:10;;;;;;;11.33;5.77;;;4.80;99.90;;;;;;5034760;28;20203;-49
2023/02/20 00:37:38;;;;;;;8.75;4.68;;;4.80;99.90;;;;;;5052773;28;20467;-49
2023/02/20 00:40:06;;;;;;;9.90;5.00;;;4.70;99.90;;;;;;5052470;28;20236;-49
2023/02/20 00:42:33;;;;;;;9.38;5.40;;;4.70;99.90;;;;;;5052325;28;20201;-49
2023/02/20 00:44:59;;;;;;;8.30;5.03;;;4.60;99.90;;;;;;5034379;28;20652;-48
2023/02/20 00:47:26;;;;;;;10.38;5.35;;;4.90;99.90;;;;;;5052172;28;20192;-49
2023/02/20 00:49:53;;;;;;;8.85;5.65;;;4.80;99.90;;;;;;5033745;28;20243;-50
2023/02/20 00:52:23;;;;;;;10.97;5.03;;;4.80;99.90;;;;;;5034105;28;20255;-48
2023/02/20 00:54:51;;;;;;;8.60;5.33;;;4.60;99.90;;;;;;5034092;28;20445;-50
2023/02/20 00:57:18;;;;;;;7.85;5.75;;;4.50;99.90;;;;;;5052450;28;20398;-49
2023/02/20 00:59:44;;;;;;;6.22;5.43;;;4.30;99.90;;;;;;5033897;28;20200;-49
2023/02/20 01:02:11;;;;;;;12.85;5.20;;;4.60;99.90;;;;;;5051766;28;20687;-49
2023/02/20 01:04:38;;;;;;;8.57;5.70;;;4.90;99.90;;;;;;5051801;28;20227;-49
2023/02/20 01:07:05;;;;;;;9.00;5.37;;;4.60;99.90;;;;;;5034034;28;20209;-51
2023/02/20 01:09:31;;;;;;;9.87;5.77;;;4.90;99.90;;;;;;5033558;28;20453;-50
2023/02/20 01:11:59;;;;;;;9.87;5.40;;;4.80;99.90;;;;;;5033979;28;20420;-48
2023/02/20 01:14:26;;;;;;;8.55;5.75;;;5.10;99.90;;;;;;5051826;28;20426;-49
2023/02/20 01:16:53;;;;;;;12.85;6.00;;;4.80;99.90;;;;;;5033784;28;20204;-48
2023/02/20 01:19:22;;;;;;;13.57;6.43;;;5.10;99.90;;;;;;5033434;28;20671;-49
2023/02/20 01:21:48;;;;;;;8.70;6.03;;;5.00;99.90;;;;;;5033710;28;20196;-48
2023/02/20 01:24:15;;;;;;;10.60;5.43;;;5.20;99.90;;;;;;5033902;28;20565;-48
2023/02/20 01:26:42;;;;;;;7.03;5.32;;;5.10;99.90;;;;;;5051319;28;20428;-49
2023/02/20 01:29:11;;;;;;;8.43;5.60;;;5.10;99.90;;;;;;5033282;28;20208;-48
2023/02/20 01:31:37;;;;;;;12.80;6.50;;;5.20;99.90;;;;;;5051711;28;20409;-49
2023/02/20 01:34:07;;;;;;;14.33;7.63;;;4.90;99.90;;;;;;5033803;28;20897;-52
2023/02/20 01:36:34;;;;;;;7.07;5.00;;;5.30;99.90;;;;;;5033679;28;20447;-49
2023/02/20 01:39:01;;;;;;;11.98;6.35;;;5.30;99.90;;;;;;5051119;28;20193;-51
2023/02/20 01:41:28;;;;;;;10.63;6.63;;;5.20;99.90;;;;;;5051505;28;20197;-49
2023/02/20 01:43:55;;;;;;;10.25;5.40;;;5.40;99.90;;;;;;5051372;28;20244;-49
2023/02/20 01:46:47;;;;;;;8.52;5.70;;;5.10;99.90;;;;;;5051474;28;20213;-51
2023/02/20 01:49:17;;;;;;;8.02;5.40;;;5.40;99.90;;;;;;5051096;28;20343;-48
2023/02/20 01:51:47;;;;;;;8.43;5.77;;;5.20;99.90;;;;;;5033422;28;20197;-48
2023/02/20 01:54:18;;;;;;;8.40;6.10;;;5.40;99.90;;;;;;5051291;28;20532;-48
2023/02/20 01:56:48;;;;;;;6.50;5.80;;;5.40;99.90;;;;;;5033547;28;20474;-48
2023/02/20 01:59:16;;;;;;;12.93;7.17;;;5.60;99.90;;;;;;5033006;28;20912;-50
2023/02/20 02:01:44;;;;;;;11.50;6.43;;;5.50;99.90;;;;;;5033301;28;20866;-49
2023/02/20 02:04:13;;;;;;;8.90;6.13;;;4.80;99.90;;;;;;5033101;28;20457;-49
2023/02/20 02:06:43;;;;;;;7.90;6.40;;;5.50;99.90;;;;;;5051319;28;20194;-49
2023/02/20 02:09:18;;;;;;;8.83;5.63;;;5.50;99.90;;;;;;5032884;28;20425;-48
2023/02/20 02:11:46;;;;;;;8.40;5.77;;;5.30;99.90;;;;;;5033285;28;20414;-50
2023/02/20 02:14:14;;;;;;;8.80;6.27;;;5.30;99.90;;;;;;5033200;28;20450;-54
2023/02/20 02:16:50;;;;;;;7.77;5.50;;;5.40;99.90;;;;;;5033060;28;20416;-49
2023/02/20 02:19:36;;;;;;;7.43;6.30;;;5.50;99.90;;;;;;5050595;28;20873;-49
2023/02/20 02:22:29;;;;;;;7.77;6.60;;;5.60;99.90;;;;;;5033256;28;20986;-49
2023/02/20 02:25:19;;;;;;;10.77;6.10;;;5.20;99.90;;;;;;5033171;28;20946;-48
2023/02/20 02:28:08;;;;;;;9.45;5.63;;;5.70;99.90;;;;;;5033129;28;20949;-49
2023/02/20 02:31:09;;;;;;;7.13;5.63;;;5.50;99.90;;;;;;5032985;28;20275;-49
2023/02/20 02:34:31;;;;;;;9.30;5.57;;;5.20;99.90;;;;;;5032976;28;20985;-49
2023/02/20 02:37:11;;;;;;;7.87;5.27;;;5.60;99.90;;;;;;5051583;28;20913;-50
2023/02/20 02:39:44;;;;;;;8.80;5.90;;;5.60;99.90;;;;;;5036483;28;20896;-49
2023/02/20 02:42:20;;;;;;;8.20;6.17;;;5.90;99.90;;;;;;5054727;28;20442;-50
2023/02/20 02:44:53;;;;;;;6.40;5.30;;;5.70;99.90;;;;;;5036596;28;20450;-50
2023/02/20 02:47:25;;;;;;;10.77;5.77;;;5.10;99.90;;;;;;5054422;28;20406;-51
2023/02/20 02:49:59;;;;;;;8.13;5.50;;;5.70;99.90;;;;;;5036283;28;20441;-48
2023/02/20 02:52:47;;;;;;;8.30;5.93;;;5.80;99.90;;;;;;5036433;28;20426;-50
2023/02/20 02:55:16;;;;;;;9.10;5.70;;;5.60;99.90;;;;;;5054538;28;20901;-50
2023/02/20 02:57:42;;;;;;;8.00;6.50;;;5.70;99.90;;;;;;5054454;28;20410;-49
2023/02/20 03:00:12;;;;;;;8.00;5.67;;;6.00;99.90;;;;;;5036045;28;20463;-49
2023/02/20 03:02:46;;;;;;;8.10;5.90;;;5.90;99.90;;;;;;5054084;28;20390;-48
2023/02/20 03:05:17;;;;;;;13.80;6.00;;;5.90;99.90;;;;;;5054221;28;20415;-50
2023/02/20 03:07:47;;;;;;;12.80;6.80;;;6.00;99.90;;;;;;5036337;28;20417;-48
2023/02/20 03:10:20;;;;;;;8.47;6.13;;;5.60;99.90;;;;;;5053715;28;20446;-50
2023/02/20 03:12:50;;;;;;;9.30;7.23;;;5.90;99.90;;;;;;5054022;28;20433;-51
2023/02/20 03:15:34;;;;;;;11.07;7.10;;;5.90;99.90;;;;;;5036195;28;20437;-48
2023/02/20 03:18:10;;;;;;;8.27;6.80;;;6.30;99.90;;;;;;5035936;28;20546;-51
2023/02/20 03:20:42;;;;;;;10.40;6.87;;;6.00;99.90;;;;;;5035903;28;20450;-49
2023/02/20 03:23:14;;;;;;;9.60;6.53;;;6.00;99.90;;;;;;5035886;28;20933;-51
2023/02/20 03:25:46;;;;;;;10.17;6.30;;;6.30;99.90;;;;;;5053759;28;20821;-49
2023/02/20 03:28:18;;;;;;;15.43;8.00;;;6.10;99.90;;;;;;5035547;28;20425;-51
2023/02/20 03:30:49;;;;;;;9.83;7.37;;;6.00;99.90;;;;;;5035808;28;20555;-50
2023/02/20 03:44:33;;;;;;;11.63;7.10;;;6.20;99.90;;;;;;5035386;28;20445;-49
2023/02/20 03:47:02;;;;;;;7.87;6.13;;;5.60;99.90;;;;;;5035418;28;20427;-49
2023/02/20 03:49:35;;;;;;;9.97;7.90;;;6.20;99.90;;;;;;5034717;28;20450;-50
2023/02/20 03:52:03;;;;;;;11.20;7.80;;;6.10;99.90;;;;;;5035453;28;20456;-49
2023/02/20 03:54:36;;;;;;;12.83;7.33;;;6.70;99.90;;;;;;5035463;28;20450;-49
2023/02/20 03:57:06;;;;;;;12.57;7.70;;;6.20;99.90;;;;;;5035221;28;20434;-49
2023/02/20 03:59:37;;;;;;;9.87;7.73;;;6.30;99.90;;;;;;5034908;28;20463;-51
2023/02/20 04:02:07;;;;;;;12.30;8.33;;;6.10;99.90;;;;;;5035315;28;20951;-48
2023/02/20 04:04:38;;;;;;;9.97;7.50;;;6.20;99.90;;;;;;5034894;28;20534;-50
2023/02/20 04:07:09;;;;;;;10.40;7.63;;;6.10;99.90;;;;;;5035008;28;20481;-48
2023/02/20 04:09:41;;;;;;;10.80;8.03;;;6.50;99.90;;;;;;5034618;28;20462;-51
2023/02/20 04:12:14;;;;;;;10.93;7.80;;;6.20;99.90;;;;;;5034995;28;20572;-49
2023/02/20 04:14:46;;;;;;;11.97;7.07;;;6.20;99.90;;;;;;5034788;28;20447;-49
2023/02/20 04:17:16;;;;;;;12.10;7.97;;;6.30;99.90;;;;;;5034861;28;20434;-49
2023/02/20 04:19:44;;;;;;;11.00;6.53;;;6.20;99.90;;;;;;5034609;28;20452;-50
2023/02/20 04:22:17;;;;;;;13.00;7.73;;;6.40;99.90;;;;;;5052617;28;20436;-48
2023/02/20 04:24:50;;;;;;;9.07;7.50;;;6.50;99.90;;;;;;5034689;28;20512;-52
2023/02/20 04:27:18;;;;;;;11.20;7.47;;;6.50;99.90;;;;;;5034773;28;20426;-48
2023/02/20 04:29:50;;;;;;;10.00;7.70;;;6.30;99.90;;;;;;5034603;28;20527;-49
2023/02/20 04:32:17;;;;;;;10.20;7.70;;;6.30;99.90;;;;;;5034517;28;20463;-49
2023/02/20 04:34:44;;;;;;;8.40;7.17;;;6.50;99.90;;;;;;5034310;28;20446;-49
2023/02/20 04:37:14;;;;;;;9.83;8.07;;;6.60;99.90;;;;;;5034817;28;20815;-49
2023/02/20 04:39:41;;;;;;;10.37;8.40;;;6.50;99.90;;;;;;5034141;28;20819;-49
2023/02/20 04:42:10;;;;;;;10.43;8.40;;;6.70;99.90;;;;;;5034422;28;20442;-49
2023/02/20 04:44:39;;;;;;;10.30;8.10;;;6.70;99.90;;;;;;5034366;28;20959;-50
2023/02/20 04:47:12;;;;;;;10.50;7.77;;;6.50;99.90;;;;;;5034343;28;20473;-49
2023/02/20 04:49:39;;;;;;;12.93;8.00;;;6.60;99.90;;;;;;5034256;28;20452;-49
2023/02/20 04:52:08;;;;;;;8.87;7.40;;;6.50;99.90;;;;;;5034172;28;20516;-53
2023/02/20 04:54:35;;;;;;;8.23;7.30;;;6.40;99.90;;;;;;5034237;28;20444;-48
2023/02/20 04:57:03;;;;;;;9.10;7.03;;;6.40;99.90;;;;;;5033938;28;21037;-48
2023/02/20 04:59:32;;;;;;;9.90;7.50;;;6.60;99.90;;;;;;5033195;28;20961;-51
2023/02/20 05:02:00;;;;;;;11.90;7.87;;;6.50;99.90;;;;;;5033851;28;20606;-51
2023/02/20 05:04:27;;;;;;;11.10;7.77;;;6.90;99.90;;;;;;5052225;28;20475;-49
2023/02/20 05:06:55;;;;;;;15.07;8.77;;;6.50;99.90;;;;;;5033844;28;20453;-49
2023/02/20 05:09:22;;;;;;;9.60;8.03;;;6.60;99.90;;;;;;5051448;28;20415;-48
2023/02/20 05:11:50;;;;;;;10.53;8.47;;;6.00;99.90;;;;;;5051773;28;20454;-50
2023/02/20 05:14:17;;;;;;;9.87;7.57;;;6.60;99.90;;;;;;5051546;28;20820;-49
2023/02/20 05:16:45;;;;;;;10.70;8.80;;;6.80;99.90;;;;;;5051623;28;20432;-49
2023/02/20 05:19:12;;;;;;;8.13;7.33;;;6.90;99.90;;;;;;5051569;28;20437;-49
2023/02/20 05:24:27;;;;;;;9.70;8.63;;;6.70;99.90;;;;;;5051566;28;20418;-49
2023/02/20 05:26:54;;;;;;;10.63;7.87;;;6.50;99.90;;;;;;5051520;28;20434;-49
2023/02/20 05:29:21;;;;;;;11.53;7.30;;;6.60;99.90;;;;;;5051341;28;20884;-50
2023/02/20 05:31:49;;;;;;;9.70;8.17;;;6.70;99.90;;;;;;5051449;28;20474;-51
2023/02/20 05:34:15;;;;;;;9.60;7.97;;;7.00;99.90;;;;;;5051480;28;20456;-50
2023/02/20 05:36:42;;;;;;;13.67;9.13;;;7.00;99.90;;;;;;5051496;28;20515;-49
2023/02/20 05:39:09;;;;;;;9.37;8.37;;;6.80;99.90;;;;;;5051020;28;20417;-48
2023/02/20 05:41:35;;;;;;;10.60;8.50;;;6.60;99.90;;;;;;5051407;28;20409;-51
2023/02/20 05:44:02;;;;;;;10.67;8.40;;;7.00;99.90;;;;;;5051319;28;20430;-48
2023/02/20 05:46:29;;;;;;;9.20;7.70;;;6.90;99.90;;;;;;5051446;28;20416;-48
2023/02/20 05:48:57;;;;;;;10.70;8.70;;;7.00;99.90;;;;;;5050845;28;20550;-50
2023/02/20 05:51:26;;;;;;;11.10;9.13;;;7.10;99.90;;;;;;5033335;28;20451;-51
2023/02/20 05:53:53;;;;;;;10.60;8.87;;;6.80;99.90;;;;;;5051134;28;20489;-49
2023/02/20 05:56:21;;;;;;;11.77;8.13;;;6.30;99.90;;;;;;5051227;28;20467;-51
2023/02/20 05:58:48;;;;;;;10.77;9.40;;;6.60;99.90;;;;;;5050748;28;20536;-50
2023/02/20 06:01:19;;;;;;;12.30;9.17;;;7.30;99.90;;;;;;5051303;28;20460;-49
2023/02/20 06:03:46;;;;;;;12.10;9.90;;;6.90;99.90;;;;;;5050828;28;20439;-51
2023/02/20 06:06:14;;;;;;;11.07;8.70;;;6.60;99.90;;;;;;5051009;28;20457;-50
2023/02/20 06:08:42;;;;;;;11.53;9.33;;;6.80;99.90;;;;;;5050774;28;20433;-50
2023/02/20 06:11:10;;;;;;;12.83;9.33;;;7.20;99.90;;;;;;5051709;28;20469;-50
2023/02/20 06:13:39;;;;;;;10.90;9.03;;;6.70;99.90;;;;;;5054961;28;20452;-50
2023/02/20 06:16:06;;;;;;;12.33;10.27;;;7.10;99.90;;;;;;5055272;28;20442;-49
2023/02/20 06:18:33;;;;;;;13.33;11.07;;;7.00;99.90;;;;;;5054657;28;20412;-49
2023/02/20 06:20:59;;;;;;;11.77;8.43;;;7.00;99.90;;;;;;5054838;28;20440;-50
2023/02/20 06:23:27;;;;;;;10.63;8.30;;;6.60;99.90;;;;;;5054904;28;20431;-50
2023/02/20 06:25:54;;;;;;;11.43;10.27;;;7.00;99.90;;;;;;5036379;28;20454;-51
2023/02/20 06:28:21;;;;;;;11.00;9.30;;;6.70;99.90;;;;;;5053949;28;20445;-49
2023/02/20 06:30:48;;;;;;;13.30;9.37;;;6.90;99.90;;;;;;5054583;28;20448;-49
2023/02/20 06:33:14;;;;;;;11.30;8.93;;;6.60;99.90;;;;;;5054464;28;20692;-49
2023/02/20 06:35:41;;;;;;;14.07;9.43;;;7.10;99.90;;;;;;5054593;28;20481;-50
2023/02/20 06:38:07;;;;;;;11.00;9.40;;;6.60;99.90;;;;;;5035991;28;20451;-53
2023/02/20 06:40:35;;;;;;;11.30;8.93;;;7.00;99.90;;;;;;5054563;28;20498;-50
2023/02/20 06:43:02;;;;;;;10.73;9.63;;;6.90;99.90;;;;;;5054446;28;20448;-49
2023/02/20 06:45:29;;;;;;;12.87;9.80;;;7.20;99.90;;;;;;5053942;28;20812;-52
2023/02/20 06:47:55;;;;;;;14.73;10.30;;;7.40;99.90;;;;;;5053912;28;20436;-50
2023/02/20 06:50:22;;;;;;;11.87;10.20;;;6.80;99.90;;;;;;5054052;28;20951;-50
2023/02/20 06:52:49;;;;;;;14.80;11.50;;;7.30;99.90;;;;;;5054413;28;20964;-53
2023/02/20 06:55:15;;;;;;;14.47;11.90;;;7.30;99.90;;;;;;5054297;28;20408;-50
2023/02/20 06:57:44;;;;;;;14.93;12.03;;;7.40;99.90;;;;;;5035695;28;20518;-50
2023/02/20 07:00:11;;;;;;;16.37;12.90;;;7.30;99.90;;;;;;5053887;28;20412;-51
2023/02/20 07:02:38;;;;;;;15.93;11.97;;;7.50;99.90;;;;;;5054140;28;20416;-52
2023/02/20 07:05:07;;;;;;;14.40;11.50;;;7.20;99.90;;;;;;5054256;28;20406;-53
2023/02/20 07:07:34;;;;;;;15.37;12.60;;;7.20;99.90;;;;;;5036227;28;20490;-52
2023/02/20 07:10:01;;;;;;;14.20;12.47;;;7.10;99.90;;;;;;5053330;28;20749;-52
2023/02/20 07:12:30;;;;;;;15.10;12.67;;;7.20;99.90;;;;;;5053792;28;20983;-53
2023/02/20 07:14:58;;;;;;;15.00;11.90;;;7.10;99.90;;;;;;5053499;28;20485;-55
2023/02/20 07:17:25;;;;;;;14.70;12.30;;;7.30;99.90;;;;;;5054084;28;20827;-53
2023/02/20 07:19:51;;;;;;;16.47;12.80;;;7.30;99.90;;;;;;5053764;28;20451;-52
2023/02/20 07:22:18;;;;;;;13.90;12.43;;;7.40;99.90;;;;;;5053837;28;20927;-55
2023/02/20 07:24:50;;;;;;;15.33;13.20;;;7.50;99.90;;;;;;5035182;28;20471;-53
2023/02/20 07:27:16;;;;;;;25.67;13.43;;;7.40;99.90;;;;;;5053519;28;20411;-52
2023/02/20 07:29:45;;;;;;;15.10;13.37;;;6.80;99.90;;;;;;5053145;28;20438;-52
2023/02/20 07:32:13;;;;;;;15.77;13.77;;;6.80;99.90;;;;;;5053375;28;20864;-53
2023/02/20 07:34:40;;;;;;;18.50;13.60;;;7.60;99.90;;;;;;5053439;28;20460;-53
2023/02/20 07:37:07;;;;;;;16.00;13.30;;;7.50;99.90;;;;;;5035668;28;20454;-53
2023/02/20 07:39:34;;;;;;;15.83;13.70;;;7.60;99.90;;;;;;5053268;28;20536;-55
2023/02/20 07:42:00;;;;;;;16.57;13.00;;;7.50;99.90;;;;;;5053676;28;21020;-52
2023/02/20 07:44:57;;;;;;;19.07;15.33;;;7.00;99.90;;;;;;5035632;28;20450;-52
2023/02/20 07:47:25;;;;;;;20.13;14.07;;;7.80;99.90;;;;;;5053221;28;20423;-51
2023/02/20 07:49:51;;;;;;;17.40;14.80;;;7.70;99.90;;;;;;5053383;28;20416;-55
2023/02/20 07:52:18;;;;;;;14.03;12.00;;;7.70;99.90;;;;;;5053333;28;20681;-52
2023/02/20 07:54:45;;;;;;;15.10;12.60;;;7.80;99.90;;;;;;5052907;28;20436;-52
2023/02/20 07:57:11;;;;;;;15.53;13.07;;;7.50;99.90;;;;;;5034792;28;20436;-53
2023/02/20 07:59:38;;;;;;;14.20;12.40;;;7.80;99.90;;;;;;5052720;28;20445;-53
2023/02/20 08:02:04;;;;;;;15.00;12.30;;;7.10;99.90;;;;;;5053008;28;20409;-53
2023/02/20 08:04:33;;;;;;;10.73;9.63;;;8.00;99.90;;;;;;5052866;28;20452;-53
2023/02/20 08:06:59;;;;;;;14.93;11.67;;;7.90;99.90;;;;;;5034995;28;20464;-53
2023/02/20 08:09:26;;;;;;;13.53;12.10;;;7.70;99.90;;;;;;5049201;28;20784;-53
2023/02/20 08:11:53;;;;;;;12.83;10.53;;;8.00;99.90;;;;;;5052403;28;20467;-52
2023/02/20 08:14:19;;;;;;;15.47;11.90;;;7.90;99.90;;;;;;5052171;28;20455;-52
2023/02/20 08:16:46;;;;;;;13.90;11.30;;;7.90;99.90;;;;;;5052066;28;20809;-53
2023/02/20 08:19:12;;;;;;;14.70;11.37;;;7.70;99.90;;;;;;5051743;28;20401;-51
2023/02/20 08:21:40;;;;;;;14.50;11.23;;;7.90;99.90;;;;;;5052234;28;20910;-53
2023/02/20 08:24:07;;;;;;;11.93;10.80;;;7.80;99.90;;;;;;5051859;28;20432;-52
2023/02/20 08:26:34;;;;;;;11.50;10.30;;;7.40;99.90;;;;;;5049472;28;20473;-51
2023/02/20 08:29:01;;;;;;;13.43;9.57;;;7.90;99.90;;;;;;5051708;28;20496;-53
2023/02/20 08:31:27;;;;;;;12.47;11.00;;;7.80;99.90;;;;;;5049593;28;20446;-52
2023/02/20 08:33:54;;;;;;;13.30;10.73;;;8.00;99.90;;;;;;5060980;28;20501;-51
2023/02/20 08:36:21;;;;;;;14.93;11.97;;;8.20;99.90;;;;;;5064983;28;20438;-52
2023/02/20 08:38:49;;;;;;;12.63;9.40;;;8.10;99.90;;;;;;5033711;28;20925;-51
2023/02/20 08:41:15;;;;;;;10.27;8.93;;;8.20;99.90;;;;;;5033470;28;20432;-51
2023/02/20 08:43:44;;;;;;;14.63;11.07;;;8.20;99.90;;;;;;5051350;28;20475;-51
2023/02/20 08:46:10;;;;;;;12.03;9.27;;;8.20;99.90;;;;;;5051557;28;20413;-50
2023/02/20 08:48:37;;;;;;;11.30;9.83;;;8.20;99.90;;;;;;5051315;28;20525;-53
2023/02/20 08:51:05;;;;;;;14.43;10.30;;;8.20;99.90;;;;;;5051568;28;20749;-51
2023/02/20 08:53:32;;;;;;;10.00;8.47;;;8.30;99.90;;;;;;5051723;28;20526;-53
2023/02/20 08:56:00;;;;;;;10.83;8.70;;;8.30;99.90;;;;;;5051815;28;20665;-52
2023/02/20 08:58:27;;;;;;;11.53;8.63;;;7.90;99.90;;;;;;5051433;28;20441;-51
2023/02/20 09:00:54;;;;;;;11.10;9.30;;;7.80;99.90;;;;;;5033276;28;20469;-52
2023/02/20 09:03:21;;;;;;;13.90;7.57;;;8.50;99.90;;;;;;5051373;28;20485;-52
2023/02/20 09:05:48;;;;;;;8.63;7.60;;;8.20;99.90;;;;;;5033794;28;20445;-54
2023/02/20 09:08:15;;;;;;;17.53;9.73;;;8.60;99.90;;;;;;5032991;28;20770;-51
2023/02/20 09:10:42;;;;;;;9.80;7.83;;;8.50;99.90;;;;;;5050233;28;20492;-54
2023/02/20 09:13:10;;;;;;;13.90;7.77;;;9.10;99.90;;;;;;5049419;28;20457;-51
2023/02/20 09:15:38;;;;;;;13.03;8.77;;;8.50;99.90;;;;;;5049968;28;20413;-52
2023/02/20 09:18:08;;;;;;;21.73;14.63;;;9.10;99.90;;;;;;5043587;28;20429;-53
2023/02/20 09:20:35;;;;;;;15.10;7.43;;;9.00;99.90;;;;;;5049379;28;20433;-52
2023/02/20 09:23:02;;;;;;;12.33;7.53;;;8.90;99.90;;;;;;5049209;28;20457;-52
2023/02/20 09:25:28;;;;;;;12.77;7.10;;;9.30;99.90;;;;;;5049210;28;20446;-52
2023/02/20 09:27:55;;;;;;;11.70;7.97;;;9.10;99.90;;;;;;5050835;28;20439;-51
2023/02/20 09:30:23;;;;;;;10.03;7.53;;;8.50;99.90;;;;;;5049994;28;20469;-52
2023/02/20 09:32:51;;;;;;;7.57;6.87;;;9.10;99.90;;;;;;5049084;28;20989;-53
2023/02/20 09:35:20;;;;;;;7.73;6.90;;;9.30;99.90;;;;;;5051239;28;20417;-52
2023/02/20 09:37:47;;;;;;;8.13;6.97;;;9.40;99.90;;;;;;5050943;28;20894;-52
2023/02/20 09:40:14;;;;;;;11.30;7.27;;;8.90;99.90;;;;;;5050567;28;20781;-53
2023/02/20 09:42:51;;;;;;;9.60;6.60;;;9.20;99.90;;;;;;5050397;28;20438;-52
2023/02/20 09:45:22;;;;;;;9.33;6.70;;;9.50;99.90;;;;;;5050843;28;20405;-54
2023/02/20 09:48:09;;;;;;;10.47;6.43;;;9.60;99.90;;;;;;5050692;28;20428;-51
2023/02/20 09:50:41;;;;;;;7.70;6.33;;;9.50;99.90;;;;;;5050748;28;20573;-53
2023/02/20 09:53:18;;;;;;;9.60;7.27;;;9.60;99.90;;;;;;5050865;28;20457;-51
2023/02/20 09:55:45;;;;;;;9.63;6.90;;;9.50;99.90;;;;;;5050236;28;20413;-52
2023/02/20 09:58:21;;;;;;;7.60;6.40;;;9.70;99.90;;;;;;5050620;28;20448;-53
2023/02/20 10:00:48;;;;;;;16.60;12.10;;;9.70;99.90;;;;;;5050743;28;20416;-53
2023/02/20 10:03:24;;;;;;;9.90;8.07;;;9.90;99.90;;;;;;5050791;28;20445;-52
2023/02/20 10:05:50;;;;;;;8.40;6.37;;;10.30;99.90;;;;;;5050607;28;20408;-52
2023/02/20 10:08:20;;;;;;;7.80;6.10;;;10.10;99.90;;;;;;5050686;28;20418;-52
2023/02/20 10:10:50;;;;;;;9.10;6.77;;;10.10;99.90;;;;;;5050523;28;20938;-54
2023/02/20 10:13:32;;;;;;;9.43;6.47;;;10.50;99.90;;;;;;5051078;28;20450;-56
2023/02/20 10:16:08;;;;;;;9.50;6.80;;;10.40;99.90;;;;;;5051179;28;20904;-54
2023/02/20 10:18:47;;;;;;;8.50;6.50;;;10.40;99.90;;;;;;5048373;28;20767;-55
2023/02/20 10:21:20;;;;;;;9.83;6.47;;;10.40;99.90;;;;;;5051227;28;20516;-54
2023/02/20 10:23:49;;;;;;;10.13;6.80;;;10.60;99.90;;;;;;5050863;28;20429;-56
2023/02/20 10:26:20;;;;;;;11.60;6.27;;;10.20;99.90;;;;;;5050672;28;20418;-53
2023/02/20 10:28:49;;;;;;;8.23;6.90;;;10.60;99.90;;;;;;5049566;28;20442;-57
2023/02/20 10:31:30;;;;;;;8.37;6.43;;;10.60;99.90;;;;;;5032619;28;20476;-56
2023/02/20 10:34:03;;;;;;;9.07;6.23;;;10.60;99.90;;;;;;5050966;28;20461;-54
2023/02/20 10:36:37;;;;;;;10.43;7.20;;;10.80;99.90;;;;;;5051008;28;20529;-54
2023/02/20 10:39:07;;;;;;;10.10;6.80;;;10.70;99.90;;;;;;5050806;28;20426;-55
2023/02/20 10:41:41;;;;;;;9.73;6.93;;;10.80;99.90;;;;;;5051388;28;20531;-54
2023/02/20 10:44:15;;;;;;;7.03;6.30;;;10.90;99.90;;;;;;5050774;28;20953;-56
2023/02/20 10:46:50;;;;;;;12.87;6.20;;;10.50;99.90;;;;;;5051057;28;20415;-56
2023/02/20 10:49:24;;;;;;;8.80;6.17;;;11.30;99.90;;;;;;5050800;28;20448;-54
2023/02/20 10:51:56;;;;;;;8.87;6.73;;;10.60;99.90;;;;;;5046306;28;20496;-54
2023/02/20 10:54:27;;;;;;;16.43;6.50;;;11.10;99.90;;;;;;5050403;28;20791;-56
2023/02/20 10:57:00;;;;;;;14.83;6.70;;;11.20;99.90;;;;;;5039124;28;20430;-55
2023/02/20 10:59:33;;;;;;;11.57;6.33;;;11.10;99.90;;;;;;5051398;28;20410;-55
2023/02/20 11:02:03;;;;;;;10.37;5.73;;;11.20;99.90;;;;;;5052135;28;20422;-55
2023/02/20 11:04:35;;;;;;;11.03;6.80;;;11.20;99.90;;;;;;5052807;28;20813;-55
2023/02/20 11:07:08;;;;;;;6.00;5.40;;;11.10;99.90;;;;;;5052095;28;20430;-53
2023/02/20 11:09:34;;;;;;;6.70;6.10;;;11.30;99.90;;;;;;5033983;28;20455;-54
2023/02/20 11:12:02;;;;;;;7.70;5.70;;;11.20;99.90;;;;;;5052559;28;20423;-54
2023/02/20 11:14:33;;;;;;;6.00;5.27;;;11.80;99.90;;;;;;5053224;28;20800;-53
2023/02/20 11:17:05;;;;;;;10.50;6.43;;;11.40;99.90;;;;;;5053735;28;20784;-53
2023/02/20 11:19:40;;;;;;;8.70;5.43;;;11.20;99.90;;;;;;5053432;28;20410;-53
2023/02/20 11:22:07;;;;;;;9.73;5.30;;;11.20;99.90;;;;;;5037479;28;20437;-53
2023/02/20 11:24:35;;;;;;;9.60;5.63;;;10.80;99.90;;;;;;5053366;28;20475;-53
2023/02/20 11:27:07;;;;;;;6.43;4.90;;;11.20;99.90;;;;;;5053453;28;20904;-54
2023/02/20 11:29:37;;;;;;;8.03;5.23;;;11.40;99.90;;;;;;5034823;28;20773;-55
2023/02/20 11:32:28;;;;;;;10.37;6.67;;;11.00;99.90;;;;;;5037094;28;20418;-53
2023/02/20 11:35:31;;;;;;;7.23;5.57;;;11.10;99.90;;;;;;5052322;28;20453;-54
2023/02/20 11:38:30;;;;;;;9.50;6.37;;;11.50;99.90;;;;;;5041918;28;20419;-55
2023/02/20 11:41:12;;;;;;;10.20;6.27;;;11.40;99.90;;;;;;5053066;28;20511;-53
2023/02/20 11:43:40;;;;;;;11.60;6.00;;;11.10;99.90;;;;;;5052587;28;20962;-54
2023/02/20 11:46:09;;;;;;;8.27;5.70;;;11.30;99.90;;;;;;5053156;28;20414;-53
2023/02/20 11:48:36;;;;;;;11.43;5.70;;;11.00;99.90;;;;;;5052466;28;20770;-53
2023/02/20 11:51:05;;;;;;;10.20;6.00;;;11.20;99.90;;;;;;5052694;28;20423;-53
2023/02/20 11:53:34;;;;;;;9.80;6.70;;;11.30;99.90;;;;;;5052688;28;20975;-52
2023/02/20 11:56:10;;;;;;;8.63;6.37;;;11.40;99.90;;;;;;5052690;28;20514;-52
2023/02/20 11:58:38;;;;;;;9.07;6.00;;;11.00;99.90;;;;;;5052725;28;20499;-53
2023/02/20 12:01:05;;;;;;;8.43;6.00;;;11.30;99.90;;;;;;5053043;28;20818;-53
2023/02/20 12:03:34;;;;;;;8.20;6.70;;;11.00;99.90;;;;;;5052625;28;20534;-54
2023/02/20 12:06:03;;;;;;;10.60;6.60;;;11.30;99.90;;;;;;5052511;28;20460;-57
2023/02/20 12:08:51;;;;;;;7.70;6.97;;;11.30;99.90;;;;;;5052636;28;20449;-55
2023/02/20 12:11:20;;;;;;;10.20;5.87;;;11.20;99.90;;;;;;5052335;28;20445;-54
2023/02/20 12:13:49;;;;;;;9.10;7.20;;;11.30;99.90;;;;;;5052487;28;21000;-54
2023/02/20 12:16:44;;;;;;;12.27;7.53;;;10.80;99.90;;;;;;5052884;28;20410;-53
2023/02/20 12:19:18;;;;;;;8.70;7.43;;;11.50;99.90;;;;;;5045018;28;20436;-57
2023/02/20 12:22:00;;;;;;;14.80;9.00;;;11.30;99.90;;;;;;5052828;28;20457;-55
2023/02/20 12:24:46;;;;;;;14.00;9.83;;;11.30;99.90;;;;;;5052483;28;20460;-55
2023/02/20 12:27:34;;;;;;;12.83;8.50;;;11.30;99.90;;;;;;5053544;28;20545;-55
2023/02/20 12:30:12;;;;;;;13.17;8.53;;;11.40;99.90;;;;;;5053969;28;20440;-55
2023/02/20 12:32:50;;;;;;;8.30;7.07;;;11.50;99.90;;;;;;5052874;28;20449;-54
2023/02/20 12:35:28;;;;;;;9.47;7.70;;;11.90;99.90;;;;;;5052866;28;20436;-56
2023/02/20 12:38:16;;;;;;;12.67;8.63;;;11.40;99.90;;;;;;5052469;28;20419;-54
2023/02/20 12:41:03;;;;;;;14.20;8.50;;;11.30;99.90;;;;;;5053408;28;20444;-55
2023/02/20 12:43:38;;;;;;;11.23;9.40;;;11.40;99.90;;;;;;5035760;28;20501;-56
2023/02/20 12:46:09;;;;;;;9.67;8.40;;;11.40;99.90;;;;;;5036198;28;20790;-53
2023/02/20 12:48:47;;;;;;;10.77;9.67;;;11.30;99.90;;;;;;5052242;28;20451;-54
2023/02/20 12:51:24;;;;;;;11.70;9.50;;;11.50;99.90;;;;;;5052339;28;20450;-56
2023/02/20 12:54:08;;;;;;;12.63;9.77;;;11.40;99.90;;;;;;5051969;28;20936;-53
2023/02/20 12:56:53;;;;;;;13.33;9.93;;;11.30;99.90;;;;;;5051776;28;20419;-53
2023/02/20 12:59:27;;;;;;;13.33;9.33;;;11.40;99.90;;;;;;5051632;28;20460;-56
2023/02/20 13:01:59;;;;;;;11.83;10.20;;;11.50;99.90;;;;;;5051456;28;20447;-55
2023/02/20 13:04:29;;;;;;;12.10;10.90;;;11.50;99.90;;;;;;5052287;28;20580;-52
2023/02/20 13:07:04;;;;;;;14.60;11.53;;;11.50;99.90;;;;;;5051787;28;20447;-55
2023/02/20 13:09:35;;;;;;;14.60;11.37;;;11.30;99.90;;;;;;5033386;28;20861;-54
2023/02/20 13:12:07;;;;;;;14.60;11.20;;;11.30;99.90;;;;;;5051384;28;20419;-53
2023/02/20 13:14:48;;;;;;;18.90;12.43;;;11.40;99.90;;;;;;5051345;28;20493;-56
2023/02/20 13:17:24;;;;;;;14.33;12.80;;;11.40;99.90;;;;;;5051412;28;20440;-53